createdAt,value
2023-05-10T00:00:26.002Z,95943.28
2023-05-10T00:02:28.898Z,95941.03
2023-05-10T00:04:30.485Z,95950.47
2023-05-10T00:06:32.055Z,95945.06
2023-05-10T00:08:33.578Z,95948.03
2023-05-10T00:10:35.056Z,95951.19
2023-05-10T00:12:36.570Z,95943.84
2023-05-10T00:14:38.082Z,95949.19
2023-05-10T00:16:39.607Z,95953.56
2023-05-10T00:18:42.474Z,95950.72
2023-05-10T00:20:43.965Z,95952.84
2023-05-10T00:22:45.477Z,95952.31
2023-05-10T00:24:47.043Z,95874.31
2023-05-10T00:26:48.545Z,95948.69
2023-05-10T00:28:49.999Z,95959.75
2023-05-10T00:30:51.527Z,95952.38
2023-05-10T00:32:53.081Z,95951.91
2023-05-10T00:34:56.063Z,95946.84
2023-05-10T00:36:57.533Z,95942.69
2023-05-10T00:38:59.054Z,95956.25
2023-05-10T00:41:00.579Z,95959.31
2023-05-10T00:43:02.104Z,95957.53
2023-05-10T00:45:04.283Z,95957.34
2023-05-10T00:47:06.187Z,95964.09
2023-05-10T00:49:07.802Z,95963.03
2023-05-10T00:51:10.962Z,95966.56
2023-05-10T00:53:13.086Z,95969.59
2023-05-10T00:55:17.571Z,95976.09
2023-05-10T00:57:19.255Z,95974.44
2023-05-10T00:59:21.402Z,95968.63
2023-05-10T01:01:23.120Z,95969.81
2023-05-10T01:03:25.198Z,95972.31
2023-05-10T01:05:26.986Z,95971.47
2023-05-10T01:07:30.004Z,95972.75
2023-05-10T01:09:32.283Z,95968.44
2023-05-10T01:11:34.317Z,95972.50
2023-05-10T01:13:38.616Z,95969.81
2023-05-10T01:15:40.690Z,95973.13
2023-05-10T01:17:45.301Z,95972.91
2023-05-10T01:19:46.892Z,95983.00
2023-05-10T01:21:56.560Z,95972.75
2023-05-10T01:24:39.685Z,95985.84
2023-05-10T01:27:13.532Z,95993.25
2023-05-10T01:29:26.283Z,95991.88
2023-05-10T01:32:19.817Z,95989.38
2023-05-10T01:34:28.399Z,95981.00
2023-05-10T01:36:32.915Z,95985.13
2023-05-10T01:38:42.850Z,95997.88
2023-05-10T01:40:49.243Z,95996.16
2023-05-10T01:42:55.351Z,95989.00
2023-05-10T01:45:01.105Z,95997.63
2023-05-10T01:47:06.987Z,95992.53
2023-05-10T01:49:10.575Z,95991.31
2023-05-10T01:51:14.109Z,95998.72
2023-05-10T01:53:19.627Z,95994.19
2023-05-10T01:55:23.697Z,96001.94
2023-05-10T01:57:28.663Z,96005.69
2023-05-10T01:59:34.673Z,96003.03
2023-05-10T02:01:38.372Z,96004.06
2023-05-10T02:03:42.361Z,96015.75
2023-05-10T02:05:44.632Z,96009.81
2023-05-10T02:07:48.934Z,96018.66
2023-05-10T02:09:51.189Z,96021.72
2023-05-10T02:11:54.747Z,96020.81
2023-05-10T02:13:58.120Z,96022.84
2023-05-10T02:16:00.722Z,96012.19
2023-05-10T02:18:04.747Z,96018.38
2023-05-10T02:20:08.496Z,96020.91
2023-05-10T02:22:10.495Z,96016.78
2023-05-10T02:24:16.698Z,96018.66
2023-05-10T02:26:21.888Z,96016.44
2023-05-10T02:28:25.577Z,96026.63
2023-05-10T02:30:27.661Z,96031.91
2023-05-10T02:32:30.627Z,96036.44
2023-05-10T02:34:32.637Z,96035.66
2023-05-10T02:36:35.659Z,96042.16
2023-05-10T02:38:37.618Z,96039.69
2023-05-10T02:40:42.214Z,96045.44
2023-05-10T02:42:45.721Z,96031.91
2023-05-10T02:44:49.518Z,96049.16
2023-05-10T02:46:50.924Z,96037.66
2023-05-10T02:48:52.507Z,96032.16
2023-05-10T02:50:56.906Z,96033.19
2023-05-10T02:53:02.229Z,96033.22
2023-05-10T02:55:06.642Z,96034.06
2023-05-10T02:57:14.393Z,96028.69
2023-05-10T02:59:15.891Z,96033.41
2023-05-10T03:01:17.409Z,96039.19
2023-05-10T03:03:19.251Z,96037.75
2023-05-10T03:05:21.047Z,96030.38
2023-05-10T03:07:22.955Z,96038.53
2023-05-10T03:09:24.613Z,96042.41
2023-05-10T03:11:40.657Z,96044.84
2023-05-10T03:13:49.210Z,96043.81
2023-05-10T03:15:58.996Z,96043.44
2023-05-10T03:18:02.856Z,96050.78
2023-05-10T03:20:07.450Z,96049.16
2023-05-10T03:22:11.944Z,96035.44
2023-05-10T03:24:14.445Z,96037.34
2023-05-10T03:26:24.433Z,96040.41
2023-05-10T03:28:27.822Z,96039.19
2023-05-10T03:30:33.038Z,96049.44
2023-05-10T03:32:34.703Z,96048.84
2023-05-10T03:34:42.671Z,96050.84
2023-05-10T03:36:44.171Z,96050.84
2023-05-10T03:38:46.061Z,96057.81
2023-05-10T03:40:47.564Z,96060.50
2023-05-10T03:42:49.050Z,96069.38
2023-05-10T03:44:50.708Z,96058.66
2023-05-10T03:46:53.579Z,96067.03
2023-05-10T03:48:55.084Z,96069.28
2023-05-10T03:50:56.681Z,96061.91
2023-05-10T03:52:58.205Z,96064.78
2023-05-10T03:54:59.710Z,96064.75
2023-05-10T03:57:01.226Z,96061.28
2023-05-10T03:59:02.725Z,96069.72
2023-05-10T04:01:04.207Z,96057.41
2023-05-10T04:03:07.119Z,96067.50
2023-05-10T04:05:09.613Z,96059.56
2023-05-10T04:07:11.127Z,96068.56
2023-05-10T04:09:12.639Z,96060.38
2023-05-10T04:11:14.148Z,96063.03
2023-05-10T04:13:15.677Z,96061.59
2023-05-10T04:15:17.631Z,96064.25
2023-05-10T04:17:19.127Z,96072.88
2023-05-10T04:19:22.131Z,96066.75
2023-05-10T04:21:23.753Z,96072.88
2023-05-10T04:23:25.375Z,96071.25
2023-05-10T04:25:26.858Z,96068.38
2023-05-10T04:27:28.338Z,96073.09
2023-05-10T04:29:29.863Z,96067.75
2023-05-10T04:31:31.359Z,96076.16
2023-05-10T04:33:33.620Z,96070.84
2023-05-10T04:35:37.077Z,96074.94
2023-05-10T04:37:38.582Z,96083.38
2023-05-10T04:39:42.167Z,96079.25
2023-05-10T04:41:44.040Z,96075.97
2023-05-10T04:43:45.534Z,96079.66
2023-05-10T04:45:47.332Z,96082.94
2023-05-10T04:47:48.896Z,96083.34
2023-05-10T04:49:50.404Z,96077.59
2023-05-10T04:51:53.284Z,96074.75
2023-05-10T04:54:05.078Z,96089.31
2023-05-10T04:56:07.799Z,96085.44
2023-05-10T04:58:09.337Z,96082.31
2023-05-10T05:00:11.861Z,96081.31
2023-05-10T05:02:13.448Z,96082.34
2023-05-10T05:04:14.959Z,96088.69
2023-05-10T05:06:16.413Z,96084.13
2023-05-10T05:08:19.220Z,96089.47
2023-05-10T05:10:20.775Z,96086.00
2023-05-10T05:12:22.252Z,96087.44
2023-05-10T05:14:23.878Z,96085.34
2023-05-10T05:16:25.471Z,96095.81
2023-05-10T05:18:26.955Z,96092.72
2023-05-10T05:20:29.196Z,96095.56
2023-05-10T05:22:30.793Z,96095.56
2023-05-10T05:24:37.476Z,96096.84
2023-05-10T05:26:39.210Z,96103.41
2023-05-10T05:28:40.750Z,96102.56
2023-05-10T05:30:42.219Z,96105.66
2023-05-10T05:32:43.815Z,96101.09
2023-05-10T05:34:45.460Z,96051.31
2023-05-10T05:36:46.941Z,96110.97
2023-05-10T05:38:48.709Z,96106.66
2023-05-10T05:40:51.555Z,96113.47
2023-05-10T05:42:53.068Z,96110.38
2023-05-10T05:44:54.566Z,96106.69
2023-05-10T05:46:56.040Z,96110.13
2023-05-10T05:48:57.568Z,96116.06
2023-05-10T05:50:59.190Z,96105.19
2023-05-10T05:53:00.716Z,96108.03
2023-05-10T05:55:02.256Z,96116.28
2023-05-10T05:57:05.197Z,96111.94
2023-05-10T05:59:06.725Z,96116.28
2023-05-10T06:01:08.236Z,96123.44
2023-05-10T06:03:09.789Z,96118.47
2023-05-10T06:05:11.447Z,96120.31
2023-05-10T06:07:12.993Z,96133.16
2023-05-10T06:09:14.567Z,96134.44
2023-05-10T06:11:16.041Z,96138.94
2023-05-10T06:13:18.944Z,96132.41
2023-05-10T06:15:20.422Z,96138.41
2023-05-10T06:17:21.903Z,96129.19
2023-05-10T06:19:23.421Z,96139.06
2023-05-10T06:21:25.010Z,96143.94
2023-05-10T06:23:26.523Z,96148.94
2023-05-10T06:25:28.115Z,96144.81
2023-05-10T06:27:29.561Z,96148.31
2023-05-10T06:29:32.471Z,96137.44
2023-05-10T06:31:34.022Z,96148.13
2023-05-10T06:33:35.684Z,96149.34
2023-05-10T06:35:37.226Z,96151.38
2023-05-10T06:37:38.721Z,96156.91
2023-05-10T06:39:40.238Z,96150.50
2023-05-10T06:41:41.766Z,96158.75
2023-05-10T06:43:43.274Z,96161.88
2023-05-10T06:45:46.126Z,96162.09
2023-05-10T06:47:47.706Z,96157.72
2023-05-10T06:49:49.223Z,96160.38
2023-05-10T06:51:50.703Z,96155.00
2023-05-10T06:53:52.274Z,96165.44
2023-05-10T06:55:53.751Z,96159.72
2023-05-10T06:57:55.255Z,96161.13
2023-05-10T06:59:56.826Z,96155.34
2023-05-10T07:01:59.777Z,96154.50
2023-05-10T07:04:01.340Z,96148.31
2023-05-10T07:06:03.041Z,96148.28
2023-05-10T07:08:04.667Z,96153.63
2023-05-10T07:10:07.035Z,96151.13
2023-05-10T07:12:10.654Z,96153.56
2023-05-10T07:14:13.143Z,96155.13
2023-05-10T07:16:14.703Z,96137.88
2023-05-10T07:18:17.627Z,96154.00
2023-05-10T07:20:19.613Z,96158.75
2023-05-10T07:22:21.099Z,96159.19
2023-05-10T07:24:22.655Z,96150.13
2023-05-10T07:26:24.165Z,96156.25
2023-05-10T07:28:25.687Z,96156.47
2023-05-10T07:30:27.185Z,96162.41
2023-05-10T07:32:28.855Z,96163.22
2023-05-10T07:34:31.810Z,96164.88
2023-05-10T07:36:33.401Z,96157.88
2023-05-10T07:38:34.967Z,96165.47
2023-05-10T07:40:36.461Z,96164.75
2023-05-10T07:42:37.993Z,96161.97
2023-05-10T07:44:39.506Z,96156.34
2023-05-10T07:46:41.042Z,96161.16
2023-05-10T07:48:42.584Z,96164.03
2023-05-10T07:50:45.445Z,96165.69
2023-05-10T07:52:46.902Z,96173.16
2023-05-10T07:54:48.413Z,96167.81
2023-05-10T07:56:49.902Z,96166.72
2023-05-10T07:58:51.722Z,96167.91
2023-05-10T08:00:53.453Z,96172.66
2023-05-10T08:02:55.042Z,96174.31
2023-05-10T08:04:56.606Z,96175.69
2023-05-10T08:06:59.470Z,96181.13
2023-05-10T08:09:01.058Z,96178.63
2023-05-10T08:11:02.862Z,96181.03
2023-05-10T08:13:04.412Z,96188.50
2023-05-10T08:15:07.144Z,96184.13
2023-05-10T08:17:08.614Z,96180.75
2023-05-10T08:19:10.159Z,96188.25
2023-05-10T08:21:11.884Z,96195.63
2023-05-10T08:23:14.750Z,96185.56
2023-05-10T08:25:16.679Z,96188.94
2023-05-10T08:27:18.396Z,96188.34
2023-05-10T08:29:19.917Z,96176.38
2023-05-10T08:31:21.521Z,96202.50
2023-05-10T08:33:23.076Z,96198.94
2023-05-10T08:35:24.610Z,96199.00
2023-05-10T08:37:26.155Z,96196.09
2023-05-10T08:39:30.651Z,96202.72
2023-05-10T08:41:34.479Z,96202.72
2023-05-10T08:43:36.916Z,96206.38
2023-05-10T08:45:39.664Z,96202.31
2023-05-10T08:47:41.987Z,96201.66
2023-05-10T08:49:44.422Z,96203.03
2023-05-10T08:51:51.931Z,96210.16
2023-05-10T08:53:53.623Z,96206.16
2023-05-10T08:55:56.714Z,96217.84
2023-05-10T08:57:58.251Z,96215.66
2023-05-10T09:00:01.880Z,96219.44
2023-05-10T09:02:05.778Z,96217.03
2023-05-10T09:04:07.492Z,96220.69
2023-05-10T09:06:09.354Z,96229.22
2023-05-10T09:08:11.647Z,96224.13
2023-05-10T09:10:14.395Z,96220.59
2023-05-10T09:12:17.258Z,96221.41
2023-05-10T09:14:19.491Z,96222.97
2023-05-10T09:16:22.442Z,96229.56
2023-05-10T09:18:26.024Z,96221.41
2023-05-10T09:20:29.637Z,96219.28
2023-05-10T09:22:31.242Z,96227.81
2023-05-10T09:24:32.749Z,96225.31
2023-05-10T09:26:34.328Z,96223.47
2023-05-10T09:28:52.085Z,96227.19
2023-05-10T09:30:54.262Z,96223.16
2023-05-10T09:32:56.806Z,96231.94
2023-05-10T09:34:58.357Z,96227.19
2023-05-10T09:37:01.081Z,96228.72
2023-05-10T09:39:03.405Z,96227.69
2023-05-10T09:41:05.022Z,96218.44
2023-05-10T09:43:08.350Z,96235.19
2023-05-10T09:45:11.339Z,96227.44
2023-05-10T09:47:18.101Z,96237.72
2023-05-10T09:49:20.124Z,96229.97
2023-05-10T09:51:22.340Z,96241.31
2023-05-10T09:53:23.838Z,96236.59
2023-05-10T09:55:27.472Z,96232.38
2023-05-10T09:57:28.951Z,96230.19
2023-05-10T09:59:30.597Z,96227.97
2023-05-10T10:01:34.329Z,96223.66
2023-05-10T10:03:42.336Z,96233.84
2023-05-10T10:05:45.372Z,96236.28
2023-05-10T10:07:47.122Z,96225.03
2023-05-10T10:09:48.796Z,96230.78
2023-05-10T10:11:50.467Z,96234.09
2023-05-10T10:13:52.140Z,96229.28
2023-05-10T10:15:55.563Z,96231.63
2023-05-10T10:17:58.448Z,96225.72
2023-05-10T10:20:00.412Z,96232.06
2023-05-10T10:22:02.183Z,96234.19
2023-05-10T10:24:03.970Z,96229.78
2023-05-10T10:26:06.111Z,96233.31
2023-05-10T10:28:22.392Z,96223.63
2023-05-10T10:30:30.002Z,96222.06
2023-05-10T10:33:00.614Z,96216.56
2023-05-10T10:35:04.203Z,96223.78
2023-05-10T10:37:06.916Z,96220.44
2023-05-10T10:39:11.248Z,96224.84
2023-05-10T10:41:29.160Z,96236.84
2023-05-10T10:43:30.676Z,96241.59
2023-05-10T10:45:32.216Z,96251.47
2023-05-10T10:47:33.826Z,96247.81
2023-05-10T10:49:42.880Z,96249.38
2023-05-10T10:52:22.077Z,96244.97
2023-05-10T10:54:28.725Z,96254.06
2023-05-10T10:56:30.218Z,96261.50
2023-05-10T10:58:32.422Z,96266.25
2023-05-10T11:00:36.227Z,96271.00
2023-05-10T11:02:45.282Z,96266.47
2023-05-10T11:04:46.942Z,96268.34
2023-05-10T11:06:49.985Z,96266.88
2023-05-10T11:08:52.815Z,96276.09
2023-05-10T11:11:05.623Z,96266.41
2023-05-10T11:13:08.742Z,96272.97
2023-05-10T11:15:10.526Z,96267.59
2023-05-10T11:17:24.905Z,96245.94
2023-05-10T11:19:28.682Z,96261.75
2023-05-10T11:21:30.506Z,96264.41
2023-05-10T11:23:48.110Z,96278.81
2023-05-10T11:25:50.390Z,96265.47
2023-05-10T11:27:52.586Z,96258.06
2023-05-10T11:29:54.128Z,96258.47
2023-05-10T11:31:58.734Z,96254.16
2023-05-10T11:34:01.264Z,96270.53
2023-05-10T11:36:02.789Z,96279.63
2023-05-10T11:38:06.693Z,96272.66
2023-05-10T11:40:11.581Z,96284.53
2023-05-10T11:42:13.317Z,96273.53
2023-05-10T11:44:14.913Z,96286.22
2023-05-10T11:46:19.137Z,96274.78
2023-05-10T11:48:20.765Z,96271.09
2023-05-10T11:50:22.493Z,96278.50
2023-05-10T11:52:24.664Z,96277.00
2023-05-10T11:54:26.158Z,96275.53
2023-05-10T11:56:29.018Z,96277.63
2023-05-10T11:58:31.705Z,96281.50
2023-05-10T12:00:33.497Z,96280.47
2023-05-10T12:02:35.241Z,96283.41
2023-05-10T12:04:37.084Z,96279.38
2023-05-10T12:06:41.608Z,96276.53
2023-05-10T12:08:46.267Z,96277.28
2023-05-10T12:10:49.406Z,96276.81
2023-05-10T12:12:57.680Z,96275.66
2023-05-10T12:14:59.155Z,96274.34
2023-05-10T12:17:00.708Z,96270.50
2023-05-10T12:19:02.331Z,96275.09
2023-05-10T12:21:04.864Z,96277.28
2023-05-10T12:23:06.804Z,96281.78
2023-05-10T12:25:10.158Z,96275.72
2023-05-10T12:27:11.733Z,96291.78
2023-05-10T12:29:15.683Z,96281.13
2023-05-10T12:31:17.362Z,96286.50
2023-05-10T12:33:18.873Z,96280.25
2023-05-10T12:35:21.053Z,96287.25
2023-05-10T12:37:26.858Z,96290.28
2023-05-10T12:39:39.912Z,96283.25
2023-05-10T12:41:43.442Z,96293.34
2023-05-10T12:43:46.218Z,96288.22
2023-05-10T12:45:49.309Z,96263.41
2023-05-10T12:47:50.854Z,96281.91
2023-05-10T12:49:52.373Z,96281.78
2023-05-10T12:51:53.850Z,96275.44
2023-05-10T12:53:55.352Z,96277.69
2023-05-10T12:55:57.052Z,96281.88
2023-05-10T12:57:58.704Z,96279.78
2023-05-10T13:00:00.207Z,96277.31
2023-05-10T13:02:03.126Z,96277.13
2023-05-10T13:04:04.719Z,96284.13
2023-05-10T13:06:06.676Z,96282.66
2023-05-10T13:08:08.198Z,96281.00
2023-05-10T13:10:10.230Z,96279.78
2023-05-10T13:12:11.748Z,96279.03
2023-05-10T13:14:13.285Z,96252.88
2023-05-10T13:16:14.805Z,96282.63
2023-05-10T13:18:17.746Z,96279.19
2023-05-10T13:20:19.504Z,96270.59
2023-05-10T13:22:32.476Z,96283.38
2023-05-10T13:24:38.276Z,96275.84
2023-05-10T13:26:39.848Z,96275.84
2023-05-10T13:28:41.365Z,96280.03
2023-05-10T13:30:42.905Z,96277.78
2023-05-10T13:32:44.418Z,96276.00
2023-05-10T13:34:47.384Z,96280.75
2023-05-10T13:36:49.214Z,96275.09
2023-05-10T13:38:51.912Z,96269.38
2023-05-10T13:40:53.517Z,96265.84
2023-05-10T13:42:55.296Z,96260.34
2023-05-10T13:44:56.849Z,96262.13
2023-05-10T13:46:58.376Z,96259.09
2023-05-10T13:48:59.896Z,96263.78
2023-05-10T13:51:02.730Z,96262.81
2023-05-10T13:53:04.210Z,96262.06
2023-05-10T13:55:06.213Z,96263.47
2023-05-10T13:57:07.912Z,96263.63
2023-05-10T13:59:09.399Z,96257.00
2023-05-10T14:01:10.892Z,96264.00
2023-05-10T14:03:12.740Z,96262.59
2023-05-10T14:05:14.357Z,96255.38
2023-05-10T14:07:17.287Z,96261.19
2023-05-10T14:09:18.794Z,96256.16
2023-05-10T14:11:21.585Z,96260.13
2023-05-10T14:13:24.687Z,96255.59
2023-05-10T14:15:26.179Z,96261.78
2023-05-10T14:17:27.702Z,96252.97
2023-05-10T14:19:29.226Z,96248.88
2023-05-10T14:21:30.745Z,96248.78
2023-05-10T14:23:33.570Z,96247.47
2023-05-10T14:25:35.255Z,96245.16
2023-05-10T14:27:36.768Z,96240.84
2023-05-10T14:29:38.243Z,96243.06
2023-05-10T14:31:41.386Z,96249.13
2023-05-10T14:33:42.927Z,96245.13
2023-05-10T14:35:45.295Z,96237.44
2023-05-10T14:37:46.836Z,96241.81
2023-05-10T14:39:49.667Z,96238.59
2023-05-10T14:41:51.271Z,96237.63
2023-05-10T14:43:52.960Z,96227.00
2023-05-10T14:45:54.488Z,96232.38
2023-05-10T14:47:56.056Z,96237.75
2023-05-10T14:49:57.550Z,96236.75
2023-05-10T14:51:59.024Z,96240.41
2023-05-10T14:54:00.556Z,96236.72
2023-05-10T14:56:03.627Z,96247.81
2023-05-10T14:58:05.123Z,96247.31
2023-05-10T15:00:07.843Z,96249.16
2023-05-10T15:02:10.010Z,96251.09
2023-05-10T15:04:11.990Z,96237.84
2023-05-10T15:06:15.398Z,96231.41
2023-05-10T15:08:16.875Z,96241.88
2023-05-10T15:10:19.062Z,96248.13
2023-05-10T15:12:21.890Z,96243.44
2023-05-10T15:14:23.403Z,96241.22
2023-05-10T15:16:25.166Z,96236.97
2023-05-10T15:18:26.879Z,96240.31
2023-05-10T15:20:28.419Z,96241.06
2023-05-10T15:22:30.737Z,96238.22
2023-05-10T15:24:33.509Z,96235.47
2023-05-10T15:26:35.104Z,96244.66
2023-05-10T15:28:37.971Z,96244.34
2023-05-10T15:30:39.511Z,96246.78
2023-05-10T15:32:41.224Z,96243.00
2023-05-10T15:34:42.739Z,96252.00
2023-05-10T15:36:44.877Z,96245.53
2023-05-10T15:38:46.420Z,96241.94
2023-05-10T15:40:47.934Z,96252.53
2023-05-10T15:42:49.459Z,96257.66
2023-05-10T15:44:52.440Z,96257.66
2023-05-10T15:46:54.007Z,96266.25
2023-05-10T15:48:55.532Z,96264.16
2023-05-10T15:50:57.027Z,96265.13
2023-05-10T15:52:58.536Z,96255.72
2023-05-10T15:55:00.033Z,96257.59
2023-05-10T15:57:01.522Z,96261.38
2023-05-10T15:59:03.148Z,96264.94
2023-05-10T16:01:06.360Z,96266.13
2023-05-10T16:03:08.000Z,96263.88
2023-05-10T16:05:10.166Z,96262.16
2023-05-10T16:07:11.644Z,96261.19
2023-05-10T16:09:13.147Z,96260.00
2023-05-10T16:11:14.644Z,96266.41
2023-05-10T16:13:16.175Z,96257.66
2023-05-10T16:15:17.967Z,96267.22
2023-05-10T16:17:21.064Z,96261.41
2023-05-10T16:19:22.663Z,96263.03
2023-05-10T16:21:24.374Z,96265.13
2023-05-10T16:23:26.061Z,96267.94
2023-05-10T16:25:27.681Z,96260.16
2023-05-10T16:27:29.286Z,96273.03
2023-05-10T16:29:30.830Z,96272.16
2023-05-10T16:31:32.352Z,96271.28
2023-05-10T16:33:35.211Z,96279.97
2023-05-10T16:35:36.741Z,96271.72
2023-05-10T16:37:38.222Z,96276.63
2023-05-10T16:39:39.694Z,96283.59
2023-05-10T16:41:41.195Z,96283.97
2023-05-10T16:43:42.662Z,96290.56
2023-05-10T16:45:44.165Z,96302.44
2023-05-10T16:47:45.670Z,96291.28
2023-05-10T16:49:48.492Z,96296.53
2023-05-10T16:51:49.986Z,96301.41
2023-05-10T16:53:51.455Z,96299.28
2023-05-10T16:55:52.931Z,96291.59
2023-05-10T16:57:54.400Z,96302.06
2023-05-10T16:59:55.953Z,96300.97
2023-05-10T17:01:57.531Z,96307.34
2023-05-10T17:03:59.147Z,96305.53
2023-05-10T17:06:02.442Z,96306.75
2023-05-10T17:08:03.932Z,96301.88
2023-05-10T17:10:06.608Z,96303.13
2023-05-10T17:12:08.197Z,96299.47
2023-05-10T17:14:09.662Z,96300.69
2023-05-10T17:16:11.252Z,96296.16
2023-05-10T17:18:12.819Z,96305.63
2023-05-10T17:20:14.333Z,96307.19
2023-05-10T17:22:17.204Z,96308.47
2023-05-10T17:24:18.697Z,96302.72
2023-05-10T17:26:20.213Z,96306.41
2023-05-10T17:28:21.823Z,96302.22
2023-05-10T17:30:23.471Z,96315.13
2023-05-10T17:32:25.624Z,96312.09
2023-05-10T17:34:27.153Z,96313.75
2023-05-10T17:36:28.660Z,96313.41
2023-05-10T17:38:31.516Z,96318.81
2023-05-10T17:40:33.033Z,96321.06
2023-05-10T17:42:34.624Z,96320.88
2023-05-10T17:44:36.115Z,96322.53
2023-05-10T17:46:37.598Z,96324.56
2023-05-10T17:48:39.089Z,96319.59
2023-05-10T17:50:41.869Z,96317.53
2023-05-10T17:52:43.332Z,96325.38
2023-05-10T17:54:46.219Z,96333.25
2023-05-10T17:56:47.749Z,96330.34
2023-05-10T17:58:49.246Z,96338.63
2023-05-10T18:00:52.064Z,96331.88
2023-05-10T18:02:53.650Z,96340.31
2023-05-10T18:04:56.746Z,96322.44
2023-05-10T18:06:59.707Z,96333.13
2023-05-10T18:09:01.220Z,96335.81
2023-05-10T18:11:04.080Z,96338.50
2023-05-10T18:13:08.055Z,96339.53
2023-05-10T18:15:10.917Z,96327.63
2023-05-10T18:17:12.593Z,96330.53
2023-05-10T18:19:14.271Z,96333.00
2023-05-10T18:21:16.561Z,96338.94
2023-05-10T18:23:18.078Z,96340.81
2023-05-10T18:25:19.725Z,96332.63
2023-05-10T18:27:22.815Z,96335.50
2023-05-10T18:29:24.337Z,96341.06
2023-05-10T18:31:25.883Z,96338.78
2023-05-10T18:33:27.411Z,96335.50
2023-05-10T18:35:29.026Z,96336.72
2023-05-10T18:37:30.558Z,96334.66
2023-05-10T18:39:32.112Z,96333.44
2023-05-10T18:41:33.722Z,96339.81
2023-05-10T18:43:36.607Z,96335.69
2023-05-10T18:45:38.221Z,96338.00
2023-05-10T18:47:39.821Z,96341.25
2023-05-10T18:49:41.388Z,96344.13
2023-05-10T18:51:42.869Z,96342.91
2023-05-10T18:53:44.382Z,96338.81
2023-05-10T18:55:46.634Z,96343.94
2023-05-10T18:57:48.284Z,96344.97
2023-05-10T18:59:51.125Z,96339.63
2023-05-10T19:01:54.221Z,96343.75
2023-05-10T19:03:56.454Z,96351.56
2023-05-10T19:05:57.989Z,96348.47
2023-05-10T19:07:59.495Z,96352.78
2023-05-10T19:10:01.006Z,96345.81
2023-05-10T19:12:02.548Z,96355.88
2023-05-10T19:14:04.084Z,96360.22
2023-05-10T19:16:13.382Z,96363.09
2023-05-10T19:18:15.258Z,96367.59
2023-05-10T19:20:16.803Z,96363.50
2023-05-10T19:22:31.923Z,96364.31
2023-05-10T19:24:42.148Z,96365.13
2023-05-10T19:26:43.678Z,96367.00
2023-05-10T19:28:45.471Z,96368.84
2023-05-10T19:30:46.920Z,96371.47
2023-05-10T19:32:49.931Z,96372.50
2023-05-10T19:34:51.825Z,96372.94
2023-05-10T19:36:54.039Z,96342.88
2023-05-10T19:38:55.669Z,96367.78
2023-05-10T19:40:57.175Z,96377.66
2023-05-10T19:42:58.678Z,96368.56
2023-05-10T19:45:00.178Z,96381.97
2023-05-10T19:47:01.755Z,96352.75
2023-05-10T19:49:04.626Z,96371.69
2023-05-10T19:51:09.325Z,96370.03
2023-05-10T19:53:11.742Z,96374.78
2023-05-10T19:55:24.826Z,96368.81
2023-05-10T19:57:26.290Z,96368.41
2023-05-10T19:59:27.874Z,96371.28
2023-05-10T20:01:29.604Z,96370.88
2023-05-10T20:03:31.150Z,96370.47
2023-05-10T20:05:34.092Z,96370.66
2023-05-10T20:07:36.410Z,96370.81
2023-05-10T20:09:37.916Z,96363.84
2023-05-10T20:11:39.396Z,96367.56
2023-05-10T20:13:40.917Z,96378.69
2023-05-10T20:15:42.474Z,96378.44
2023-05-10T20:17:44.042Z,96372.25
2023-05-10T20:19:45.570Z,96377.38
2023-05-10T20:21:48.441Z,96368.75
2023-05-10T20:23:50.005Z,96377.34
2023-05-10T20:25:51.819Z,96376.50
2023-05-10T20:27:53.510Z,96376.50
2023-05-10T20:29:54.990Z,96373.03
2023-05-10T20:31:56.572Z,96375.72
2023-05-10T20:33:58.199Z,96376.94
2023-05-10T20:35:59.707Z,96370.81
2023-05-10T20:38:02.572Z,96373.69
2023-05-10T20:40:04.736Z,96368.34
2023-05-10T20:42:06.485Z,96370.59
2023-05-10T20:44:08.178Z,96363.59
2023-05-10T20:46:09.810Z,96373.69
2023-05-10T20:48:11.426Z,96375.53
2023-05-10T20:50:12.996Z,96365.22
2023-05-10T20:52:14.679Z,96362.97
2023-05-10T20:54:17.596Z,96367.28
2023-05-10T20:56:19.101Z,96364.59
2023-05-10T20:58:20.676Z,96361.34
2023-05-10T21:00:22.199Z,96362.16
2023-05-10T21:02:23.778Z,96362.16
2023-05-10T21:04:25.480Z,96358.47
2023-05-10T21:06:27.059Z,96359.50
2023-05-10T21:08:28.562Z,96359.69
2023-05-10T21:10:31.451Z,96363.72
2023-05-10T21:12:33.034Z,96368.66
2023-05-10T21:14:34.520Z,96369.25
2023-05-10T21:16:36.445Z,96360.28
2023-05-10T21:18:38.076Z,96365.78
2023-05-10T21:20:39.569Z,96362.06
2023-05-10T21:22:41.085Z,96346.84
2023-05-10T21:24:42.598Z,96360.00
2023-05-10T21:26:45.477Z,96363.06
2023-05-10T21:28:46.980Z,96362.81
2023-05-10T21:30:48.513Z,96354.22
2023-05-10T21:32:50.070Z,96361.03
2023-05-10T21:34:51.602Z,96364.44
2023-05-10T21:36:54.358Z,96364.84
2023-05-10T21:38:55.844Z,96356.22
2023-05-10T21:40:57.340Z,96364.66
2023-05-10T21:43:00.178Z,96368.72
2023-05-10T21:45:01.689Z,96364.84
2023-05-10T21:47:03.364Z,96366.94
2023-05-10T21:49:04.865Z,96370.19
2023-05-10T21:51:06.357Z,96356.22
2023-05-10T21:53:07.877Z,96361.94
2023-05-10T21:55:10.021Z,96361.00
2023-05-10T21:57:11.520Z,96364.31
2023-05-10T21:59:14.477Z,96356.31
2023-05-10T22:01:15.957Z,96355.75
2023-05-10T22:03:17.944Z,96365.13
2023-05-10T22:05:19.546Z,96359.34
2023-05-10T22:07:21.060Z,96358.97
2023-05-10T22:09:22.593Z,96357.75
2023-05-10T22:11:24.161Z,96364.31
2023-05-10T22:13:25.701Z,96361.66
2023-05-10T22:15:28.660Z,96363.56
2023-05-10T22:17:30.244Z,96366.44
2023-05-10T22:19:31.818Z,96365.63
2023-05-10T22:21:33.319Z,96357.41
2023-05-10T22:23:34.888Z,96358.19
2023-05-10T22:25:36.387Z,96352.34
2023-05-10T22:27:37.897Z,96365.88
2023-05-10T22:29:39.435Z,96360.53
2023-05-10T22:31:42.353Z,96359.03
2023-05-10T22:33:43.886Z,96359.03
2023-05-10T22:35:45.660Z,96365.94
2023-05-10T22:37:47.120Z,96364.13
2023-05-10T22:39:48.898Z,96366.16
2023-05-10T22:41:50.387Z,96362.81
2023-05-10T22:43:51.901Z,96359.88
2023-05-10T22:45:53.435Z,96361.03
2023-05-10T22:47:56.561Z,96352.03
2023-05-10T22:49:58.085Z,96353.28
2023-05-10T22:51:59.630Z,96343.25
2023-05-10T22:54:01.217Z,96356.88
2023-05-10T22:56:02.812Z,96348.84
2023-05-10T22:58:04.373Z,96358.72
2023-05-10T23:00:07.345Z,96345.16
2023-05-10T23:02:09.575Z,96363.25
2023-05-10T23:04:12.575Z,96359.97
2023-05-10T23:06:14.094Z,96348.13
2023-05-10T23:08:15.620Z,96360.13
2023-05-10T23:10:17.312Z,96354.72
2023-05-10T23:12:18.924Z,96365.34
2023-05-10T23:14:20.413Z,96358.94
2023-05-10T23:16:21.957Z,96360.34
2023-05-10T23:18:23.499Z,96364.13
2023-05-10T23:20:26.478Z,96362.78
2023-05-10T23:22:27.974Z,96365.44
2023-05-10T23:24:29.456Z,96356.66
2023-05-10T23:26:30.958Z,96354.78
2023-05-10T23:28:32.433Z,96352.56
2023-05-10T23:30:33.941Z,96363.72
2023-05-10T23:32:35.456Z,96358.34
2023-05-10T23:34:37.009Z,96357.06
2023-05-10T23:36:39.837Z,96367.72
2023-05-10T23:38:41.339Z,96358.47
2023-05-10T23:40:42.849Z,96368.75
2023-05-10T23:42:44.318Z,96357.44
2023-05-10T23:44:45.852Z,96364.03
2023-05-10T23:46:47.332Z,96372.63
2023-05-10T23:48:48.815Z,96365.88
2023-05-10T23:50:50.517Z,96358.13
2023-05-10T23:52:53.361Z,96356.38
2023-05-10T23:54:54.915Z,96350.16
2023-05-10T23:56:56.446Z,96364.22
2023-05-10T23:58:57.924Z,96359.69
